Airport ID:KEDC
Update Time (UTC):17 AUG 18 09:48
Wind Speed (Knots):4
Wind Direction (Magnetic):190
Temperature (°C):24
Dew Point (°C):24
Humidity (%):100
Altimeter (inHg):30.07
Density Altitude (Feet):1700
Visibility (Miles):8
Clouds (Hundreds of feet):CLR
Present Weather:NO PRECIPITATION
METAR:METAR KEDC 170945Z AUTO 21003KT 8SM CLR 24/24 A3007 RMK AO2

The data displayed is for advisory purposes only and is not to be used for flight planning or operations.

This page is not automatically refreshed. Reload the page to see current data.